Martinsville, Virginia
Current Conditions -  °F | °C
As of 6:35 PM on Saturday 22 Nov 2014 (Local Time) from KMTV Reporting Station
Clear Clear  
Wind Chill:   Ceiling: Unl
Heat Index:   Visibility: 10mi
Dew Point: -6°   Wind: 0mph
Humidity: 58%   Direction: NA
Pressure: 30.35"   Gusts: NA
Location:  36.69°N, 79.87°W
Report Text: KMTV 222335Z AUTO 00000KT 10SM CLR 02/M06 A3035 RMK AO2 T00181057
Loading
Personal Weather Stations






























Interactive Weather Map New forecast layout! Learn more

10-Day Weather Forecast

Advertisements
Track Severe Weather on mobile